Time;durP1;ratioP1;P1;durP2;ratioP2;P2;SDS_P1;SDS_P2;PMS_P1;PMS_P2;Temp;Humidity;BMP_temperature;BMP_pressure;BME280_temperature;BME280_humidity;BME280_pressure;Samples;Min_cycle;Max_cycle;Signal;HPM_P1;HPM_P2
2023/05/18 00:02:04;;;;;;;7.50;4.90;;;6.50;99.90;;;;;;5117106;28;20530;-77
2023/05/18 00:04:34;;;;;;;9.43;5.57;;;6.50;99.90;;;;;;5098483;28;20648;-78
2023/05/18 00:07:03;;;;;;;7.97;5.03;;;6.60;99.90;;;;;;5116119;28;20209;-77
2023/05/18 00:09:39;;;;;;;8.97;5.90;;;6.70;99.90;;;;;;5097924;28;20270;-77
2023/05/18 00:12:06;;;;;;;9.40;5.63;;;6.60;99.90;;;;;;5116591;28;20235;-77
2023/05/18 00:14:32;;;;;;;8.90;5.03;;;6.70;99.90;;;;;;5097328;28;20221;-77
2023/05/18 00:17:00;;;;;;;11.97;5.37;;;6.70;99.90;;;;;;5115615;28;20179;-77
2023/05/18 00:19:28;;;;;;;8.73;5.67;;;6.70;99.90;;;;;;5117070;28;20168;-77
2023/05/18 00:21:54;;;;;;;7.60;5.20;;;6.70;99.90;;;;;;5115672;28;20172;-77
2023/05/18 00:24:21;;;;;;;13.00;5.90;;;6.70;99.90;;;;;;5115974;28;20632;-77
2023/05/18 00:26:48;;;;;;;11.20;5.23;;;6.70;99.90;;;;;;5097149;28;20209;-77
2023/05/18 00:29:14;;;;;;;8.80;5.20;;;6.60;99.90;;;;;;5097402;28;20184;-76
2023/05/18 00:31:41;;;;;;;14.60;6.27;;;6.50;99.90;;;;;;5097345;28;20173;-77
2023/05/18 00:34:12;;;;;;;8.73;5.23;;;6.40;99.90;;;;;;5115590;28;20169;-77
2023/05/18 00:36:38;;;;;;;8.47;5.33;;;6.40;99.90;;;;;;5099828;28;20573;-77
2023/05/18 00:39:05;;;;;;;6.70;5.50;;;6.20;99.90;;;;;;5094985;28;20637;-76
2023/05/18 00:41:31;;;;;;;10.47;5.43;;;6.00;99.90;;;;;;5076585;28;20197;-77
2023/05/18 00:43:58;;;;;;;8.27;5.30;;;5.80;99.90;;;;;;5077481;28;20213;-78
2023/05/18 00:46:25;;;;;;;7.17;5.40;;;5.60;99.90;;;;;;5095381;28;20265;-78
2023/05/18 00:48:52;;;;;;;11.33;5.60;;;5.60;99.90;;;;;;5095540;28;20154;-77
2023/05/18 00:51:19;;;;;;;9.00;5.33;;;5.40;99.90;;;;;;5077717;28;20222;-77
2023/05/18 00:53:46;;;;;;;11.20;5.43;;;5.30;99.90;;;;;;5095553;28;20180;-79
2023/05/18 00:56:12;;;;;;;9.27;5.77;;;5.30;99.90;;;;;;5077084;28;20229;-78
2023/05/18 00:58:40;;;;;;;6.80;5.47;;;5.20;99.90;;;;;;5095277;28;20177;-79
2023/05/18 01:01:05;;;;;;;6.53;5.50;;;5.10;99.90;;;;;;5076527;28;20181;-77
2023/05/18 01:03:38;;;;;;;9.97;5.80;;;5.00;99.90;;;;;;5094354;28;20700;-76
2023/05/18 01:06:05;;;;;;;10.03;5.73;;;5.20;99.90;;;;;;5106594;28;20684;-77
2023/05/18 01:08:32;;;;;;;7.53;5.83;;;5.30;99.90;;;;;;5114799;28;20168;-77
2023/05/18 01:11:38;;;;;;;10.07;5.93;;;5.50;99.90;;;;;;5114761;28;20667;-76
2023/05/18 01:14:31;;;;;;;6.80;5.67;;;5.60;99.90;;;;;;5103958;28;20271;-77
2023/05/18 01:17:34;;;;;;;7.03;5.93;;;5.80;99.90;;;;;;5114678;28;20160;-77
2023/05/18 01:20:10;;;;;;;7.93;5.60;;;5.70;99.90;;;;;;5096272;28;20306;-77
2023/05/18 01:22:55;;;;;;;7.90;5.53;;;5.70;99.90;;;;;;5096121;28;20703;-77
2023/05/18 01:25:32;;;;;;;8.93;5.90;;;5.80;99.90;;;;;;5114355;28;20675;-77
2023/05/18 01:28:06;;;;;;;12.57;6.70;;;5.70;99.90;;;;;;5096243;28;20357;-77
2023/05/18 01:30:34;;;;;;;7.73;6.00;;;5.80;99.90;;;;;;5096211;28;20625;-77
2023/05/18 01:33:05;;;;;;;8.47;6.23;;;5.90;99.90;;;;;;5114269;28;20183;-77
2023/05/18 01:35:30;;;;;;;10.70;6.53;;;5.80;99.90;;;;;;5114184;28;20283;-77
2023/05/18 01:37:56;;;;;;;8.57;6.23;;;5.80;99.90;;;;;;5095956;28;20662;-75
2023/05/18 01:40:24;;;;;;;10.07;6.60;;;5.70;99.90;;;;;;5095800;28;20644;-77
2023/05/18 01:42:58;;;;;;;7.70;6.03;;;5.70;99.90;;;;;;5096051;28;20186;-77
2023/05/18 01:45:27;;;;;;;10.60;6.43;;;5.60;99.90;;;;;;5095637;28;20220;-77
2023/05/18 01:47:57;;;;;;;6.53;5.80;;;5.60;99.90;;;;;;5095812;28;20196;-76
2023/05/18 01:50:36;;;;;;;6.83;5.70;;;5.40;99.90;;;;;;5114301;28;20248;-77
2023/05/18 01:53:12;;;;;;;7.67;6.53;;;5.40;99.90;;;;;;5114018;28;20617;-77
2023/05/18 01:55:39;;;;;;;10.43;6.80;;;5.30;99.90;;;;;;5114073;28;20202;-77
2023/05/18 01:58:06;;;;;;;8.67;6.13;;;5.40;99.90;;;;;;5113777;28;20263;-76
2023/05/18 02:00:33;;;;;;;7.43;5.70;;;5.40;99.90;;;;;;5114061;28;20179;-77
2023/05/18 02:02:59;;;;;;;11.47;6.20;;;5.30;99.90;;;;;;5113867;28;20172;-77
2023/05/18 02:05:25;;;;;;;7.30;5.77;;;5.30;99.90;;;;;;5088945;28;20213;-76
2023/05/18 02:07:51;;;;;;;9.50;6.20;;;5.20;99.90;;;;;;5075427;28;20552;-77
2023/05/18 02:10:17;;;;;;;7.97;5.80;;;5.00;99.90;;;;;;5093862;28;20176;-76
2023/05/18 02:12:42;;;;;;;10.63;6.10;;;4.70;99.90;;;;;;5076159;28;20172;-77
2023/05/18 02:15:09;;;;;;;9.87;6.47;;;4.60;99.90;;;;;;5075714;28;20208;-77
2023/05/18 02:17:38;;;;;;;8.57;6.47;;;4.50;99.90;;;;;;5093728;28;20188;-77
2023/05/18 02:20:08;;;;;;;10.80;6.47;;;4.30;99.90;;;;;;5075419;28;20710;-76
2023/05/18 02:22:34;;;;;;;7.93;5.90;;;4.30;99.90;;;;;;5075114;28;20231;-77
2023/05/18 02:25:01;;;;;;;9.10;6.20;;;4.30;99.90;;;;;;5093539;28;20197;-76
2023/05/18 02:27:27;;;;;;;10.57;6.47;;;4.40;99.90;;;;;;5093211;28;20207;-76
2023/05/18 02:29:53;;;;;;;10.53;7.07;;;4.60;99.90;;;;;;5075313;28;20586;-76
2023/05/18 02:32:19;;;;;;;9.17;6.37;;;4.60;99.90;;;;;;5093303;28;20184;-76
2023/05/18 02:34:45;;;;;;;11.17;6.47;;;4.70;99.90;;;;;;5076061;28;20177;-77
2023/05/18 02:37:12;;;;;;;11.23;7.03;;;4.80;99.90;;;;;;5095113;28;20648;-76
2023/05/18 02:39:38;;;;;;;9.97;6.23;;;4.80;99.90;;;;;;5113627;28;20172;-76
2023/05/18 02:42:04;;;;;;;7.90;6.30;;;4.90;99.90;;;;;;5113393;28;20188;-76
2023/05/18 02:44:30;;;;;;;8.40;5.87;;;4.90;99.90;;;;;;5095223;28;20184;-77
2023/05/18 02:46:56;;;;;;;10.17;5.77;;;4.90;99.90;;;;;;5114003;28;20215;-76
2023/05/18 02:49:21;;;;;;;7.53;6.20;;;4.90;99.90;;;;;;5095507;28;20617;-75
2023/05/18 02:51:47;;;;;;;7.93;6.60;;;4.80;99.90;;;;;;5113341;28;20255;-76
2023/05/18 02:54:13;;;;;;;7.57;6.37;;;4.80;99.90;;;;;;5114313;28;20172;-76
2023/05/18 02:56:40;;;;;;;11.80;6.53;;;4.80;99.90;;;;;;5113357;28;20200;-76
2023/05/18 02:59:06;;;;;;;11.13;6.23;;;4.80;99.90;;;;;;5114014;28;20625;-76
2023/05/18 03:01:35;;;;;;;9.67;6.60;;;4.80;99.90;;;;;;5113437;28;20180;-75
2023/05/18 03:04:01;;;;;;;13.00;6.47;;;4.80;99.90;;;;;;5095308;28;20188;-76
2023/05/18 03:06:29;;;;;;;7.97;6.50;;;4.90;99.90;;;;;;5094954;28;20216;-76
2023/05/18 03:08:55;;;;;;;10.33;6.00;;;4.80;99.90;;;;;;5095747;28;20181;-76
2023/05/18 03:11:22;;;;;;;7.00;6.30;;;4.70;99.90;;;;;;5116965;28;20173;-76
2023/05/18 03:13:48;;;;;;;8.50;6.63;;;4.80;99.90;;;;;;5116970;28;20204;-76
2023/05/18 03:16:15;;;;;;;12.13;7.67;;;4.80;99.90;;;;;;5117275;28;20223;-76
2023/05/18 03:18:40;;;;;;;9.97;6.70;;;4.70;99.90;;;;;;5116825;28;20177;-76
2023/05/18 03:21:07;;;;;;;8.73;6.70;;;4.70;99.90;;;;;;5098534;28;20663;-76
2023/05/18 03:23:33;;;;;;;7.87;7.07;;;4.80;99.90;;;;;;5116573;28;20177;-75
2023/05/18 03:26:01;;;;;;;10.33;6.40;;;4.80;99.90;;;;;;5116394;28;20204;-76
2023/05/18 03:28:27;;;;;;;11.40;7.10;;;4.70;99.90;;;;;;5098531;28;20177;-75
2023/05/18 03:30:53;;;;;;;12.87;7.73;;;4.70;99.90;;;;;;5098456;28;20648;-75
2023/05/18 03:33:19;;;;;;;7.67;6.70;;;4.70;99.90;;;;;;5116845;28;20176;-76
2023/05/18 03:35:45;;;;;;;10.40;6.47;;;4.60;99.90;;;;;;5116452;28;20706;-76
2023/05/18 03:38:10;;;;;;;7.93;6.60;;;4.70;99.90;;;;;;5098134;28;20535;-76
2023/05/18 03:40:37;;;;;;;12.63;7.50;;;4.70;99.90;;;;;;5098032;28;20219;-76
2023/05/18 03:43:02;;;;;;;10.87;7.30;;;4.70;99.90;;;;;;5116412;28;20192;-76
2023/05/18 03:45:28;;;;;;;10.97;7.07;;;4.50;99.90;;;;;;5116221;28;20676;-76
2023/05/18 03:47:54;;;;;;;10.57;6.97;;;4.50;99.90;;;;;;5116869;28;20204;-76
2023/05/18 03:50:20;;;;;;;9.67;7.00;;;4.50;99.90;;;;;;5116570;28;20557;-76
2023/05/18 03:52:45;;;;;;;9.03;6.83;;;4.40;99.90;;;;;;5097814;28;20211;-76
2023/05/18 03:55:11;;;;;;;12.90;7.30;;;4.40;99.90;;;;;;5097813;28;20235;-76
2023/05/18 03:57:37;;;;;;;10.17;7.47;;;4.30;99.90;;;;;;5116691;28;20171;-76
2023/05/18 04:00:11;;;;;;;9.50;6.40;;;4.20;99.90;;;;;;5097803;28;20177;-76
2023/05/18 04:02:37;;;;;;;9.20;7.17;;;4.20;99.90;;;;;;5097842;28;20190;-76
2023/05/18 04:05:04;;;;;;;11.70;6.83;;;4.20;99.90;;;;;;5115920;28;20235;-76
2023/05/18 04:07:29;;;;;;;12.30;7.00;;;4.10;99.90;;;;;;5097169;28;20208;-77
2023/05/18 04:09:55;;;;;;;8.90;6.77;;;3.90;99.90;;;;;;5115959;28;20176;-76
2023/05/18 04:12:21;;;;;;;8.23;6.47;;;3.80;99.90;;;;;;5097564;28;20184;-76
2023/05/18 04:14:48;;;;;;;12.00;6.90;;;3.60;99.90;;;;;;5097591;28;20316;-76
2023/05/18 04:17:20;;;;;;;7.63;6.93;;;3.60;99.90;;;;;;5115725;28;20172;-76
2023/05/18 04:19:48;;;;;;;8.00;6.50;;;3.50;99.90;;;;;;5097132;28;20185;-76
2023/05/18 04:22:15;;;;;;;10.27;6.90;;;3.50;99.90;;;;;;5096503;28;20364;-77
2023/05/18 04:24:41;;;;;;;10.53;7.00;;;3.50;99.90;;;;;;5097330;28;20180;-76
2023/05/18 04:27:08;;;;;;;8.60;7.40;;;3.70;99.90;;;;;;5097448;28;20561;-76
2023/05/18 04:29:38;;;;;;;10.60;7.60;;;3.70;99.90;;;;;;5097478;28;20181;-76
2023/05/18 04:32:06;;;;;;;8.57;6.73;;;3.70;99.90;;;;;;5115800;28;20214;-78
2023/05/18 04:34:36;;;;;;;9.20;6.97;;;3.80;99.90;;;;;;5116264;28;20175;-78
2023/05/18 04:37:05;;;;;;;12.17;7.30;;;4.10;99.90;;;;;;5116716;28;20191;-77
2023/05/18 04:39:34;;;;;;;9.10;6.70;;;4.20;99.90;;;;;;5116121;28;20181;-77
2023/05/18 04:42:00;;;;;;;10.00;7.73;;;4.30;99.90;;;;;;5097428;28;20196;-77
2023/05/18 04:44:28;;;;;;;8.57;7.00;;;4.50;99.90;;;;;;5115924;28;20172;-78
2023/05/18 04:46:54;;;;;;;9.73;6.93;;;4.50;99.90;;;;;;5115087;28;20250;-78
2023/05/18 04:49:24;;;;;;;11.27;8.63;;;4.70;99.90;;;;;;5115230;28;20172;-78
2023/05/18 04:51:54;;;;;;;10.17;7.80;;;4.80;99.90;;;;;;5096811;28;20164;-77
2023/05/18 04:54:29;;;;;;;10.43;7.80;;;4.90;99.90;;;;;;5115097;28;20180;-78
2023/05/18 04:56:56;;;;;;;10.10;8.10;;;5.00;99.90;;;;;;5114955;28;20196;-78
2023/05/18 04:59:25;;;;;;;9.03;8.13;;;5.10;99.90;;;;;;5114882;28;20251;-78
2023/05/18 05:01:54;;;;;;;11.37;8.43;;;5.20;99.90;;;;;;5096503;28;20180;-78
2023/05/18 05:04:21;;;;;;;12.47;8.33;;;5.20;99.90;;;;;;5096757;28;20543;-78
2023/05/18 05:06:47;;;;;;;10.60;8.13;;;5.30;99.90;;;;;;5114513;28;20208;-77
2023/05/18 05:09:13;;;;;;;11.87;8.00;;;5.40;99.90;;;;;;5096603;28;20199;-78
2023/05/18 05:11:40;;;;;;;12.23;8.13;;;5.40;99.90;;;;;;5096538;28;20267;-78
2023/05/18 05:14:06;;;;;;;11.57;8.20;;;5.50;99.90;;;;;;5096531;28;20232;-78
2023/05/18 05:16:32;;;;;;;14.90;9.47;;;5.60;99.90;;;;;;5114735;28;20600;-78
2023/05/18 05:18:57;;;;;;;16.03;9.20;;;5.60;99.90;;;;;;5096422;28;20271;-78
2023/05/18 05:21:24;;;;;;;15.67;8.87;;;5.50;99.90;;;;;;5115024;28;20172;-78
2023/05/18 05:23:51;;;;;;;15.00;8.47;;;5.50;99.90;;;;;;5096547;28;20176;-78
2023/05/18 05:26:19;;;;;;;15.17;9.20;;;5.50;99.90;;;;;;5096531;28;20299;-78
2023/05/18 05:28:45;;;;;;;12.03;8.83;;;5.50;99.90;;;;;;5114720;28;20176;-78
2023/05/18 05:31:10;;;;;;;11.07;8.40;;;5.50;99.90;;;;;;5114585;28;20559;-78
2023/05/18 05:33:36;;;;;;;12.43;9.73;;;5.60;99.90;;;;;;5114186;28;20216;-78
2023/05/18 05:36:04;;;;;;;14.43;8.73;;;5.70;99.90;;;;;;5114375;28;20229;-79
2023/05/18 05:38:30;;;;;;;12.97;8.47;;;5.70;99.90;;;;;;5095894;28;20693;-75
2023/05/18 05:40:56;;;;;;;12.93;8.87;;;5.80;99.90;;;;;;5095844;28;20202;-75
2023/05/18 05:43:22;;;;;;;11.57;8.43;;;5.90;99.90;;;;;;5114007;28;20180;-74
2023/05/18 05:45:48;;;;;;;10.40;8.80;;;6.00;99.90;;;;;;5114072;28;20203;-75
2023/05/18 05:48:14;;;;;;;15.93;8.97;;;6.00;99.90;;;;;;5095976;28;20652;-75
2023/05/18 05:50:39;;;;;;;11.97;8.63;;;6.20;99.90;;;;;;5096120;28;20184;-75
2023/05/18 05:53:05;;;;;;;11.80;9.17;;;6.30;99.90;;;;;;5095730;28;20225;-75
2023/05/18 05:55:31;;;;;;;14.33;8.47;;;6.40;99.90;;;;;;5114156;28;20204;-75
2023/05/18 05:57:57;;;;;;;14.97;9.50;;;6.50;99.90;;;;;;5095701;28;20184;-75
2023/05/18 06:00:23;;;;;;;13.50;9.20;;;6.60;99.90;;;;;;5114503;28;20180;-75
2023/05/18 06:02:49;;;;;;;13.20;8.83;;;6.50;99.90;;;;;;5114379;28;20172;-75
2023/05/18 06:05:14;;;;;;;11.00;8.47;;;6.60;99.90;;;;;;5095584;28;20744;-75
2023/05/18 06:07:40;;;;;;;14.30;9.23;;;6.60;99.90;;;;;;5095464;28;20672;-75
2023/05/18 06:10:07;;;;;;;14.80;9.13;;;6.70;99.90;;;;;;5095585;28;20181;-75
2023/05/18 06:12:33;;;;;;;18.00;9.73;;;6.80;99.90;;;;;;5114094;28;20255;-75
2023/05/18 06:14:58;;;;;;;13.83;9.10;;;6.90;99.90;;;;;;5095599;28;20727;-75
2023/05/18 06:17:25;;;;;;;9.97;8.97;;;6.90;99.90;;;;;;5095484;28;20563;-75
2023/05/18 06:19:52;;;;;;;15.03;9.07;;;7.00;99.90;;;;;;5114072;28;20185;-75
2023/05/18 06:22:18;;;;;;;15.97;9.57;;;7.20;99.90;;;;;;5113542;28;20265;-75
2023/05/18 06:24:44;;;;;;;13.13;9.30;;;7.30;99.90;;;;;;5095222;28;20279;-75
2023/05/18 06:27:10;;;;;;;14.63;8.50;;;7.50;99.90;;;;;;5095377;28;20668;-75
2023/05/18 06:29:36;;;;;;;15.07;8.33;;;7.60;99.90;;;;;;5113679;28;20168;-75
2023/05/18 06:32:02;;;;;;;13.87;7.93;;;7.70;99.90;;;;;;5095678;28;20658;-75
2023/05/18 06:34:28;;;;;;;12.33;7.63;;;7.80;99.90;;;;;;5095664;28;20559;-75
2023/05/18 06:36:54;;;;;;;13.90;8.43;;;7.90;99.90;;;;;;5095399;28;20220;-75
2023/05/18 06:39:20;;;;;;;14.60;8.63;;;8.00;99.90;;;;;;5095487;28;20261;-75
2023/05/18 06:41:50;;;;;;;14.47;7.77;;;8.10;99.90;;;;;;5095207;28;20196;-75
2023/05/18 06:44:16;;;;;;;16.87;7.73;;;8.20;99.90;;;;;;5096618;28;20725;-75
2023/05/18 06:46:42;;;;;;;17.67;8.10;;;8.30;99.90;;;;;;5099258;28;20208;-76
2023/05/18 06:49:11;;;;;;;16.30;7.40;;;8.40;99.90;;;;;;5099347;28;20188;-76
2023/05/18 06:51:37;;;;;;;14.50;7.57;;;8.50;99.90;;;;;;5098923;28;20183;-75
2023/05/18 06:54:03;;;;;;;15.33;7.70;;;8.60;99.90;;;;;;5117525;28;20177;-75
2023/05/18 06:56:29;;;;;;;14.87;7.30;;;8.70;99.90;;;;;;5098903;28;20200;-76
2023/05/18 06:58:55;;;;;;;12.63;6.90;;;8.80;99.90;;;;;;5098956;28;20184;-76
2023/05/18 07:01:21;;;;;;;12.27;7.67;;;8.90;99.90;;;;;;5098822;28;20176;-77
2023/05/18 07:03:46;;;;;;;14.30;6.70;;;9.00;99.90;;;;;;5098685;28;20186;-76
2023/05/18 07:06:13;;;;;;;13.17;7.70;;;9.00;99.90;;;;;;5099138;28;20216;-76
2023/05/18 07:08:39;;;;;;;15.67;7.77;;;9.10;99.90;;;;;;5118015;28;20172;-75
2023/05/18 07:11:05;;;;;;;12.00;7.37;;;9.20;99.90;;;;;;5117191;28;20559;-75
2023/05/18 07:13:32;;;;;;;15.20;7.60;;;9.30;99.90;;;;;;5116816;28;20168;-75
2023/05/18 07:15:57;;;;;;;10.93;6.47;;;9.40;99.90;;;;;;5116619;28;20268;-76
2023/05/18 07:18:23;;;;;;;17.30;7.57;;;9.50;99.90;;;;;;5116770;28;20636;-75
2023/05/18 07:20:49;;;;;;;12.13;6.87;;;9.60;99.90;;;;;;5117268;28;20212;-75
2023/05/18 07:23:15;;;;;;;19.73;7.13;;;9.80;99.90;;;;;;5098931;28;20184;-74
2023/05/18 07:25:41;;;;;;;13.17;6.37;;;9.80;99.90;;;;;;5098618;28;20218;-74
2023/05/18 07:28:06;;;;;;;12.13;6.93;;;9.90;99.90;;;;;;5117378;28;20165;-75
2023/05/18 07:30:32;;;;;;;12.83;6.07;;;10.00;99.90;;;;;;5116681;28;20624;-74
2023/05/18 07:32:58;;;;;;;10.37;6.30;;;10.10;99.90;;;;;;5098659;28;20655;-74
2023/05/18 07:35:25;;;;;;;11.80;6.07;;;10.20;99.90;;;;;;5116644;28;20240;-74
2023/05/18 07:37:52;;;;;;;12.03;5.90;;;10.30;99.90;;;;;;5116473;28;20217;-76
2023/05/18 07:40:18;;;;;;;13.93;6.17;;;10.40;99.90;;;;;;5098152;28;20185;-75
2023/05/18 07:42:44;;;;;;;9.20;6.20;;;10.40;55.10;;;;;;5116435;28;20169;-75
2023/05/18 07:45:11;;;;;;;11.13;6.27;;;10.50;62.70;;;;;;5116686;28;20249;-74
2023/05/18 07:47:36;;;;;;;9.63;6.10;;;10.50;60.40;;;;;;5098309;28;20672;-75
2023/05/18 07:50:03;;;;;;;12.83;6.33;;;10.60;99.90;;;;;;5098384;28;20208;-74
2023/05/18 07:52:29;;;;;;;11.57;5.97;;;10.70;6.10;;;;;;5117381;28;20542;-74
2023/05/18 07:54:58;;;;;;;10.63;6.40;;;10.70;47.70;;;;;;5098952;28;20203;-75
2023/05/18 07:57:24;;;;;;;9.77;5.87;;;10.70;99.90;;;;;;5116446;28;20172;-75
2023/05/18 07:59:50;;;;;;;14.27;7.20;;;10.80;54.10;;;;;;5116924;28;20184;-75
2023/05/18 08:02:18;;;;;;;10.73;6.30;;;10.90;45.70;;;;;;5098297;28;20272;-76
2023/05/18 08:04:44;;;;;;;10.95;6.28;;;11.00;21.70;;;;;;5115550;28;20248;-74
2023/05/18 08:07:11;;;;;;;12.80;5.78;;;11.00;43.90;;;;;;5095882;28;20208;-74
2023/05/18 08:09:37;;;;;;;13.02;5.53;;;11.10;49.20;;;;;;5096267;28;20172;-74
2023/05/18 08:12:04;;;;;;;12.25;5.90;;;11.20;1.00;;;;;;5095561;28;20154;-74
2023/05/18 08:14:30;;;;;;;12.32;6.25;;;11.20;1.00;;;;;;5095762;28;20182;-74
2023/05/18 08:16:55;;;;;;;13.20;5.88;;;11.30;1.00;;;;;;5077760;28;20656;-74
2023/05/18 08:19:21;;;;;;;8.77;5.25;;;11.40;27.10;;;;;;5095674;28;20627;-75
2023/05/18 08:21:47;;;;;;;12.68;5.38;;;11.70;1.00;;;;;;5095766;28;20510;-74
2023/05/18 08:24:13;;;;;;;12.55;5.40;;;11.90;1.00;;;;;;5096290;28;20187;-75
2023/05/18 08:26:38;;;;;;;10.07;5.20;;;12.50;1.00;;;;;;5096507;28;20553;-74
2023/05/18 08:29:08;;;;;;;12.80;4.72;;;13.40;1.00;;;;;;5096198;28;20169;-74
2023/05/18 08:31:38;;;;;;;9.00;4.70;;;14.40;99.90;;;;;;5095552;28;20200;-74
2023/05/18 08:34:04;;;;;;;8.35;5.15;;;15.30;99.90;;;;;;5095433;28;20169;-74
2023/05/18 08:36:32;;;;;;;8.52;4.63;;;15.80;99.90;;;;;;5110728;28;20208;-74
2023/05/18 08:38:58;;;;;;;9.98;4.63;;;16.40;1.00;;;;;;5096927;28;20207;-74
2023/05/18 08:41:59;;;;;;;11.70;4.40;;;16.80;99.90;;;;;;5115210;28;20188;-74
2023/05/18 08:44:30;;;;;;;11.82;4.70;;;16.80;99.90;;;;;;5115038;28;20159;-74
2023/05/18 08:46:56;;;;;;;8.48;4.30;;;16.70;99.90;;;;;;5115059;28;20200;-74
2023/05/18 08:49:25;;;;;;;8.63;4.38;;;16.90;1.00;;;;;;5114984;28;20604;-74
2023/05/18 08:51:56;;;;;;;9.65;4.18;;;17.10;1.00;;;;;;5096488;28;20173;-75
2023/05/18 08:54:23;;;;;;;8.32;4.50;;;17.50;1.00;;;;;;5096747;28;20168;-74
2023/05/18 08:56:49;;;;;;;8.13;4.32;;;17.70;1.00;;;;;;5114748;28;20729;-73
2023/05/18 08:59:22;;;;;;;8.55;4.15;;;17.60;99.90;;;;;;5114812;28;20204;-76
2023/05/18 09:01:49;;;;;;;7.95;4.28;;;17.50;99.90;;;;;;5096954;28;20180;-76
2023/05/18 09:04:15;;;;;;;6.82;4.35;;;17.60;99.90;;;;;;5096689;28;20211;-76
2023/05/18 09:06:42;;;;;;;12.35;4.47;;;17.70;99.90;;;;;;5114580;28;20196;-75
2023/05/18 09:09:13;;;;;;;9.00;4.80;;;17.20;31.00;;;;;;5114993;28;20173;-75
2023/05/18 09:11:45;;;;;;;12.32;4.85;;;16.90;1.00;;;;;;5115011;28;20164;-75
2023/05/18 09:14:15;;;;;;;10.32;4.65;;;17.00;99.90;;;;;;5096277;28;20225;-75
2023/05/18 09:16:41;;;;;;;12.50;4.30;;;17.20;99.90;;;;;;5096361;28;20222;-75
2023/05/18 09:19:08;;;;;;;9.70;4.30;;;17.10;99.90;;;;;;5114642;28;20668;-75
2023/05/18 09:21:34;;;;;;;11.07;4.47;;;17.30;99.90;;;;;;5114376;28;20184;-74
2023/05/18 09:24:00;;;;;;;7.85;4.22;;;17.60;99.90;;;;;;5114301;28;20286;-75
2023/05/18 09:26:26;;;;;;;9.13;4.22;;;17.50;99.90;;;;;;5096098;28;20290;-75
2023/05/18 09:28:53;;;;;;;10.32;4.53;;;17.70;1.00;;;;;;5096146;28;20186;-75
2023/05/18 09:31:20;;;;;;;8.85;4.25;;;17.60;99.90;;;;;;5095976;28;20169;-75
2023/05/18 09:33:47;;;;;;;10.90;4.32;;;17.40;99.90;;;;;;5114104;28;20172;-74
2023/05/18 09:36:16;;;;;;;13.32;4.90;;;17.50;99.90;;;;;;5095845;28;20215;-74
2023/05/18 09:38:45;;;;;;;10.38;4.13;;;17.50;99.90;;;;;;5114100;28;20504;-75
2023/05/18 09:41:16;;;;;;;8.93;4.15;;;17.60;99.90;;;;;;5114238;28;20192;-76
2023/05/18 09:43:46;;;;;;;11.45;4.32;;;17.60;99.90;;;;;;5114117;28;20153;-76
2023/05/18 09:46:12;;;;;;;10.55;4.38;;;17.60;99.90;;;;;;5114179;28;20200;-76
2023/05/18 09:48:45;;;;;;;8.27;3.83;;;17.70;99.90;;;;;;5114098;28;20164;-75
2023/05/18 09:51:17;;;;;;;10.10;4.00;;;17.90;99.90;;;;;;5095879;28;20216;-76
2023/05/18 09:53:56;;;;;;;13.80;4.40;;;18.10;99.90;;;;;;5114136;28;20163;-76
2023/05/18 09:56:26;;;;;;;9.10;3.65;;;18.10;33.00;;;;;;5114732;28;20279;-76
2023/05/18 09:58:52;;;;;;;11.30;4.57;;;18.30;99.90;;;;;;5116176;28;20647;-76
2023/05/18 10:01:18;;;;;;;9.55;4.10;;;18.20;33.40;;;;;;5118548;28;20182;-75
2023/05/18 10:03:48;;;;;;;10.30;4.10;;;17.70;1.00;;;;;;5098201;28;20181;-77
2023/05/18 10:06:18;;;;;;;8.10;4.20;;;17.90;35.70;;;;;;5097486;28;20209;-76
2023/05/18 10:08:45;;;;;;;9.77;4.38;;;17.70;1.00;;;;;;5115241;28;20169;-75
2023/05/18 10:11:10;;;;;;;7.40;3.92;;;17.40;1.00;;;;;;5095520;28;20259;-75
2023/05/18 10:13:36;;;;;;;12.15;4.63;;;17.30;1.00;;;;;;5114798;28;20204;-75
2023/05/18 10:16:04;;;;;;;13.75;4.60;;;17.50;99.90;;;;;;5114420;28;20188;-75
2023/05/18 10:18:37;;;;;;;10.45;4.75;;;17.40;99.90;;;;;;5115675;28;20176;-78
2023/05/18 10:21:05;;;;;;;10.13;4.68;;;17.30;99.90;;;;;;5099986;28;20172;-78
2023/05/18 10:23:34;;;;;;;8.75;4.10;;;17.40;99.90;;;;;;5100147;28;20187;-77
2023/05/18 10:26:03;;;;;;;12.60;4.95;;;17.10;99.90;;;;;;5118858;28;20641;-76
2023/05/18 10:28:43;;;;;;;9.13;5.43;;;17.00;99.90;;;;;;5099567;28;20207;-76
2023/05/18 10:31:10;;;;;;;8.07;4.22;;;16.80;99.90;;;;;;5099740;28;20160;-77
2023/05/18 10:33:38;;;;;;;9.32;4.15;;;16.90;99.90;;;;;;5117695;28;20164;-77
2023/05/18 10:36:05;;;;;;;8.38;4.15;;;17.00;99.90;;;;;;5105386;28;20244;-76
2023/05/18 10:38:32;;;;;;;8.70;4.60;;;16.80;1.00;;;;;;5097060;28;20176;-74
2023/05/18 10:40:59;;;;;;;10.48;4.72;;;16.60;99.90;;;;;;5096994;28;20576;-74
2023/05/18 10:43:26;;;;;;;14.63;4.78;;;16.10;1.00;;;;;;5097248;28;20173;-74
2023/05/18 10:45:57;;;;;;;7.85;4.32;;;16.00;1.00;;;;;;5097360;28;20266;-74
2023/05/18 10:48:23;;;;;;;10.23;4.90;;;16.10;1.00;;;;;;5097396;28;20176;-74
2023/05/18 10:50:52;;;;;;;6.93;4.10;;;16.40;1.00;;;;;;5097039;28;20664;-74
2023/05/18 10:53:20;;;;;;;12.20;4.75;;;16.50;20.20;;;;;;5078691;28;20173;-74
2023/05/18 10:55:50;;;;;;;9.23;4.35;;;16.70;1.00;;;;;;5078531;28;20212;-74
2023/05/18 10:58:18;;;;;;;11.52;5.07;;;16.70;1.00;;;;;;5096948;28;20178;-74
2023/05/18 11:01:05;;;;;;;8.73;4.10;;;16.70;99.90;;;;;;5096791;28;20661;-74
2023/05/18 11:03:32;;;;;;;7.03;4.25;;;16.70;99.90;;;;;;5078791;28;20231;-74
2023/05/18 11:06:09;;;;;;;12.15;4.80;;;16.70;89.80;;;;;;5108014;28;20283;-73
2023/05/18 11:08:55;;;;;;;10.13;4.35;;;16.70;99.80;;;;;;5098807;28;20194;-74
2023/05/18 11:11:27;;;;;;;7.40;4.05;;;16.80;1.00;;;;;;5116585;28;20568;-74
2023/05/18 11:13:53;;;;;;;10.13;4.40;;;16.90;99.90;;;;;;5117275;28;20167;-74
2023/05/18 11:16:19;;;;;;;8.65;4.65;;;17.10;99.90;;;;;;5098483;28;20200;-74
2023/05/18 11:18:46;;;;;;;10.93;4.28;;;17.20;1.00;;;;;;5117017;28;20178;-74
2023/05/18 11:21:19;;;;;;;13.32;4.57;;;17.30;1.00;;;;;;5116818;28;20173;-74
2023/05/18 11:24:22;;;;;;;10.32;4.47;;;17.40;1.00;;;;;;5116539;28;20259;-74
2023/05/18 11:26:52;;;;;;;9.48;4.35;;;17.30;99.90;;;;;;5098133;28;20208;-74
2023/05/18 11:29:21;;;;;;;6.47;4.07;;;17.00;1.00;;;;;;5116332;28;20260;-74
2023/05/18 11:31:49;;;;;;;13.65;4.22;;;17.20;1.00;;;;;;5116383;28;20169;-75
2023/05/18 11:34:35;;;;;;;8.23;4.22;;;17.10;1.00;;;;;;5100075;28;20675;-79
2023/05/18 11:37:01;;;;;;;7.10;4.10;;;17.40;1.00;;;;;;5079485;28;20317;-79
2023/05/18 11:39:27;;;;;;;9.77;4.00;;;17.40;1.00;;;;;;5079519;28;20181;-79
2023/05/18 11:42:22;;;;;;;11.18;4.35;;;17.50;99.90;;;;;;5097207;28;20185;-79
2023/05/18 11:44:55;;;;;;;7.85;4.03;;;17.70;1.00;;;;;;5088255;28;20222;-80
2023/05/18 11:47:22;;;;;;;10.82;4.47;;;17.90;1.00;;;;;;5078626;28;20251;-79
2023/05/18 11:49:51;;;;;;;11.88;4.40;;;17.80;99.90;;;;;;5097162;28;20705;-79
2023/05/18 11:52:22;;;;;;;7.97;3.92;;;17.90;99.90;;;;;;5097145;28;20176;-80
2023/05/18 11:54:55;;;;;;;14.23;4.45;;;18.10;99.90;;;;;;5078842;28;20177;-80
2023/05/18 11:57:25;;;;;;;7.43;3.97;;;18.20;1.00;;;;;;5096856;28;20717;-79
2023/05/18 11:59:56;;;;;;;10.20;4.53;;;18.50;99.90;;;;;;5099219;28;20157;-79
2023/05/18 12:02:27;;;;;;;9.45;4.40;;;18.50;99.90;;;;;;5082914;28;20656;-79
2023/05/18 12:04:59;;;;;;;7.93;4.45;;;18.50;99.90;;;;;;5102385;28;20164;-79
2023/05/18 12:07:34;;;;;;;10.15;4.30;;;18.20;99.90;;;;;;5120809;28;20188;-80
2023/05/18 12:10:08;;;;;;;8.32;4.30;;;18.00;75.20;;;;;;5102611;28;20175;-79
2023/05/18 12:12:34;;;;;;;12.98;4.65;;;18.00;92.70;;;;;;5121459;28;20163;-78
2023/05/18 12:15:01;;;;;;;9.57;4.40;;;17.60;1.00;;;;;;5119485;28;20196;-78
2023/05/18 12:17:50;;;;;;;8.10;4.32;;;17.50;1.00;;;;;;5119130;28;20589;-78
2023/05/18 12:20:18;;;;;;;7.72;3.83;;;17.30;1.00;;;;;;5093039;28;20216;-78
2023/05/18 12:22:49;;;;;;;7.70;3.90;;;17.50;99.90;;;;;;5119048;28;20244;-79
2023/05/18 12:25:15;;;;;;;11.13;4.35;;;17.70;99.90;;;;;;5118653;28;20196;-78
2023/05/18 12:27:42;;;;;;;8.50;4.00;;;17.70;62.20;;;;;;5100099;28;20227;-78
2023/05/18 12:30:16;;;;;;;10.60;4.07;;;17.90;35.20;;;;;;5097088;28;20169;-79
2023/05/18 12:32:55;;;;;;;8.38;4.35;;;18.40;99.40;;;;;;5089549;28;20184;-78
2023/05/18 12:35:25;;;;;;;9.50;3.53;;;18.60;35.30;;;;;;5078411;28;20674;-78
2023/05/18 12:37:56;;;;;;;11.80;4.10;;;18.90;1.00;;;;;;5098801;28;20161;-77
2023/05/18 12:40:22;;;;;;;8.25;3.67;;;19.10;1.00;;;;;;5081262;28;20181;-77
2023/05/18 12:42:55;;;;;;;8.23;3.40;;;19.00;1.00;;;;;;5096009;28;20657;-78
2023/05/18 12:45:26;;;;;;;7.78;3.33;;;19.20;1.00;;;;;;5097393;28;20208;-78
2023/05/18 12:47:53;;;;;;;11.93;3.97;;;18.80;1.00;;;;;;5088031;28;20177;-78
2023/05/18 12:50:21;;;;;;;10.82;4.13;;;18.80;1.00;;;;;;5097452;28;20240;-78
2023/05/18 12:52:48;;;;;;;9.32;3.78;;;18.70;1.00;;;;;;5103518;28;20165;-78
2023/05/18 12:55:21;;;;;;;6.45;3.22;;;18.90;1.00;;;;;;5102914;28;20193;-78